createdAt,value
2024-04-22T00:00:18.480Z,2.03
2024-04-22T00:02:45.310Z,2.17
2024-04-22T00:05:13.538Z,1.88
2024-04-22T00:07:40.340Z,1.92
2024-04-22T00:10:07.467Z,2.70
2024-04-22T00:12:34.294Z,2.13
2024-04-22T00:15:01.177Z,1.98
2024-04-22T00:17:28.033Z,2.15
2024-04-22T00:19:54.835Z,2.35
2024-04-22T00:22:21.751Z,2.42
2024-04-22T00:24:48.593Z,2.30
2024-04-22T00:27:15.401Z,2.17
2024-04-22T00:29:42.144Z,2.17
2024-04-22T00:32:08.956Z,2.03
2024-04-22T00:34:35.859Z,2.33
2024-04-22T00:37:05.662Z,1.98
2024-04-22T00:39:32.414Z,1.95
2024-04-22T00:41:59.237Z,2.30
2024-04-22T00:44:26.085Z,2.58
2024-04-22T00:46:53.028Z,2.42
2024-04-22T00:49:19.993Z,2.25
2024-04-22T00:51:47.219Z,2.70
2024-04-22T00:54:15.640Z,2.30
2024-04-22T00:56:42.603Z,2.08
2024-04-22T00:59:09.528Z,2.30
2024-04-22T01:01:38.109Z,2.55
2024-04-22T01:04:05.853Z,2.30
2024-04-22T01:06:32.840Z,2.13
2024-04-22T01:08:59.576Z,2.50
2024-04-22T01:11:26.671Z,2.05
2024-04-22T01:13:55.388Z,2.15
2024-04-22T01:16:22.212Z,2.20
2024-04-22T01:18:49.122Z,2.30
2024-04-22T01:21:15.916Z,1.60
2024-04-22T01:23:46.243Z,2.05
2024-04-22T01:26:13.380Z,2.10
2024-04-22T01:28:40.235Z,2.20
2024-04-22T01:31:07.111Z,2.13
2024-04-22T01:33:33.917Z,1.95
2024-04-22T01:36:00.672Z,2.20
2024-04-22T01:38:27.408Z,2.00
2024-04-22T01:40:54.172Z,2.00
2024-04-22T01:43:21.003Z,2.03
2024-04-22T01:45:47.943Z,2.33
2024-04-22T01:48:14.779Z,2.30
2024-04-22T01:50:41.583Z,2.10
2024-04-22T01:53:08.359Z,2.10
2024-04-22T01:55:35.172Z,2.20
2024-04-22T01:58:02.044Z,1.98
2024-04-22T02:00:28.809Z,1.90
2024-04-22T02:02:55.627Z,2.30
2024-04-22T02:05:23.276Z,2.15
2024-04-22T02:07:50.091Z,2.30
2024-04-22T02:10:23.282Z,2.08
2024-04-22T02:12:52.343Z,2.45
2024-04-22T02:15:19.154Z,1.90
2024-04-22T02:17:46.089Z,3.03
2024-04-22T02:20:13.379Z,1.98
2024-04-22T02:22:40.231Z,1.90
2024-04-22T02:25:07.371Z,2.10
2024-04-22T02:27:34.219Z,2.13
2024-04-22T02:30:01.027Z,2.22
2024-04-22T02:32:29.137Z,1.75
2024-04-22T02:34:56.013Z,2.00
2024-04-22T02:37:22.930Z,1.75
2024-04-22T02:39:49.745Z,2.10
2024-04-22T02:42:16.495Z,2.20
2024-04-22T02:44:43.240Z,1.83
2024-04-22T02:47:10.037Z,2.05
2024-04-22T02:49:37.122Z,2.00
2024-04-22T02:52:04.030Z,1.90
2024-04-22T02:54:32.858Z,2.15
2024-04-22T02:56:59.665Z,1.88
2024-04-22T02:59:26.467Z,2.22
2024-04-22T03:01:53.389Z,2.20
2024-04-22T03:04:20.208Z,2.03
2024-04-22T03:06:48.316Z,2.13
2024-04-22T03:09:15.763Z,1.95
2024-04-22T03:11:42.627Z,1.67
2024-04-22T03:14:09.388Z,2.03
2024-04-22T03:16:36.160Z,1.90
2024-04-22T03:19:02.977Z,2.00
2024-04-22T03:21:29.762Z,1.90
2024-04-22T03:23:56.521Z,2.28
2024-04-22T03:26:23.301Z,2.00
2024-04-22T03:28:50.158Z,1.77
2024-04-22T03:31:17.015Z,1.85
2024-04-22T03:33:43.890Z,2.17
2024-04-22T03:36:10.715Z,2.10
2024-04-22T03:38:37.491Z,2.38
2024-04-22T03:41:04.510Z,2.15
2024-04-22T03:43:31.299Z,2.17
2024-04-22T03:46:16.652Z,2.03
2024-04-22T03:49:02.019Z,2.00
2024-04-22T03:51:28.788Z,1.80
2024-04-22T03:53:55.544Z,2.10
2024-04-22T03:56:22.429Z,2.00
2024-04-22T03:58:49.173Z,1.83
2024-04-22T04:01:17.371Z,2.20
2024-04-22T04:03:44.348Z,1.65
2024-04-22T04:06:11.183Z,2.20
2024-04-22T04:08:38.010Z,2.42
2024-04-22T04:11:14.249Z,2.33
2024-04-22T04:13:42.102Z,1.95
2024-04-22T04:16:11.751Z,2.25
2024-04-22T04:18:42.623Z,2.20
2024-04-22T04:21:09.410Z,2.05
2024-04-22T04:23:36.221Z,1.88
2024-04-22T04:26:03.198Z,2.72
2024-04-22T04:28:30.025Z,1.77
2024-04-22T04:31:00.649Z,1.80
2024-04-22T04:33:28.104Z,1.75
2024-04-22T04:36:05.909Z,1.77
2024-04-22T04:38:33.372Z,1.80
2024-04-22T04:41:00.914Z,1.75
2024-04-22T04:43:28.070Z,2.00
2024-04-22T04:45:55.054Z,1.80
2024-04-22T04:48:23.026Z,1.83
2024-04-22T04:50:50.571Z,1.92
2024-04-22T04:53:18.724Z,1.77
2024-04-22T04:55:49.135Z,1.48
2024-04-22T04:58:16.529Z,1.85
2024-04-22T05:00:43.722Z,1.80
2024-04-22T05:03:10.705Z,1.45
2024-04-22T05:05:37.488Z,2.22
2024-04-22T05:08:05.322Z,2.17
2024-04-22T05:10:32.596Z,1.83
2024-04-22T05:12:59.432Z,1.67
2024-04-22T05:15:26.666Z,1.90
2024-04-22T05:17:53.597Z,2.00
2024-04-22T05:20:20.581Z,1.92
2024-04-22T05:22:47.398Z,1.70
2024-04-22T05:25:14.274Z,1.77
2024-04-22T05:27:41.084Z,1.80
2024-04-22T05:30:08.253Z,1.85
2024-04-22T05:32:35.160Z,2.00
2024-04-22T05:35:20.559Z,1.90
2024-04-22T05:37:47.372Z,1.85
2024-04-22T05:40:14.251Z,1.70
2024-04-22T05:42:41.070Z,1.92
2024-04-22T05:45:07.967Z,1.70
2024-04-22T05:47:34.798Z,1.88
2024-04-22T05:50:03.266Z,1.45
2024-04-22T05:52:30.076Z,1.80
2024-04-22T05:54:56.906Z,1.63
2024-04-22T05:57:23.950Z,1.77
2024-04-22T05:59:50.820Z,1.75
2024-04-22T06:02:17.619Z,1.60
2024-04-22T06:04:44.425Z,1.70
2024-04-22T06:07:11.277Z,1.55
2024-04-22T06:09:38.149Z,1.98
2024-04-22T06:12:15.156Z,1.83
2024-04-22T06:14:46.052Z,1.77
2024-04-22T06:17:12.962Z,1.85
2024-04-22T06:19:40.241Z,1.50
2024-04-22T06:22:07.105Z,2.00
2024-04-22T06:24:33.959Z,2.30
2024-04-22T06:27:00.716Z,2.17
2024-04-22T06:29:27.501Z,2.90
2024-04-22T06:31:54.380Z,1.92
2024-04-22T06:34:21.280Z,2.30
2024-04-22T06:36:48.079Z,2.00
2024-04-22T06:39:15.003Z,1.90
2024-04-22T06:41:41.768Z,2.20
2024-04-22T06:44:08.636Z,2.40
2024-04-22T06:46:35.572Z,1.90
2024-04-22T06:49:02.449Z,1.90
2024-04-22T06:51:29.283Z,2.03
2024-04-22T06:53:56.081Z,1.90
2024-04-22T06:56:22.863Z,2.08
2024-04-22T06:58:49.660Z,1.95
2024-04-22T07:01:26.847Z,3.10
2024-04-22T07:03:59.518Z,2.35
2024-04-22T07:06:26.687Z,2.05
2024-04-22T07:08:53.656Z,1.95
2024-04-22T07:11:20.548Z,1.77
2024-04-22T07:13:47.674Z,2.00
2024-04-22T07:16:15.413Z,2.10
2024-04-22T07:18:42.363Z,2.33
2024-04-22T07:21:09.151Z,2.05
2024-04-22T07:23:35.970Z,2.03
2024-04-22T07:26:06.280Z,1.90
2024-04-22T07:28:33.545Z,2.22
2024-04-22T07:31:00.605Z,2.05
2024-04-22T07:33:31.439Z,2.13
2024-04-22T07:36:18.734Z,2.15
2024-04-22T07:38:49.040Z,2.25
2024-04-22T07:41:16.110Z,2.92
2024-04-22T07:43:43.137Z,2.20
2024-04-22T07:46:09.963Z,1.95
2024-04-22T07:48:36.783Z,2.45
2024-04-22T07:51:04.529Z,2.13
2024-04-22T07:53:31.715Z,2.22
2024-04-22T07:55:58.779Z,2.30
2024-04-22T07:58:25.805Z,2.05
2024-04-22T08:00:53.428Z,1.80
2024-04-22T08:03:20.715Z,2.55
2024-04-22T08:05:47.892Z,1.92
2024-04-22T08:08:19.986Z,1.73
2024-04-22T08:10:47.100Z,1.98
2024-04-22T08:13:13.985Z,2.38
2024-04-22T08:15:41.122Z,1.35
2024-04-22T08:18:08.072Z,1.60
2024-04-22T08:20:35.173Z,1.38
2024-04-22T08:23:01.995Z,1.92
2024-04-22T08:25:28.892Z,1.60
2024-04-22T08:27:55.732Z,1.60
2024-04-22T08:30:22.558Z,1.20
2024-04-22T08:32:49.567Z,2.00
2024-04-22T08:35:16.477Z,1.88
2024-04-22T08:37:43.464Z,1.48
2024-04-22T08:40:11.691Z,1.42
2024-04-22T08:42:39.800Z,1.70
2024-04-22T08:45:08.252Z,1.77
2024-04-22T08:47:35.241Z,1.70
2024-04-22T08:50:02.165Z,1.35
2024-04-22T08:52:36.601Z,1.33
2024-04-22T08:55:07.451Z,1.27
2024-04-22T08:57:34.359Z,1.30
2024-04-22T09:00:01.187Z,1.15
2024-04-22T09:02:27.947Z,1.27
2024-04-22T09:04:54.927Z,1.17
2024-04-22T09:07:21.757Z,1.33
2024-04-22T09:10:07.771Z,1.40
2024-04-22T09:12:36.059Z,2.63
2024-04-22T09:15:04.133Z,1.48
2024-04-22T09:17:31.917Z,1.40
2024-04-22T09:19:59.091Z,1.30
2024-04-22T09:22:26.038Z,1.38
2024-04-22T09:24:53.198Z,1.50
2024-04-22T09:27:20.045Z,2.60
2024-04-22T09:29:49.273Z,1.60
2024-04-22T09:32:17.852Z,1.80
2024-04-22T09:34:45.104Z,1.70
2024-04-22T09:37:12.252Z,1.70
2024-04-22T09:39:41.376Z,1.48
2024-04-22T09:42:09.646Z,1.58
2024-04-22T09:44:37.620Z,2.00
2024-04-22T09:47:06.323Z,1.48
2024-04-22T09:49:36.879Z,1.92
2024-04-22T09:52:05.737Z,2.10
2024-04-22T09:54:32.698Z,1.73
2024-04-22T09:57:00.790Z,2.03
2024-04-22T09:59:27.869Z,1.83
2024-04-22T10:01:54.981Z,1.70
2024-04-22T10:04:22.224Z,1.75
2024-04-22T10:06:51.239Z,1.80
2024-04-22T10:09:18.527Z,1.92
2024-04-22T10:11:45.814Z,1.80
2024-04-22T10:14:15.703Z,1.40
2024-04-22T10:17:05.253Z,1.40
2024-04-22T10:19:33.328Z,1.30
2024-04-22T10:22:02.082Z,1.48
2024-04-22T10:24:38.869Z,1.45
2024-04-22T10:27:11.913Z,1.65
2024-04-22T10:29:41.982Z,1.70
2024-04-22T10:32:08.872Z,1.50
2024-04-22T10:34:39.793Z,1.80
2024-04-22T10:37:07.202Z,1.87
2024-04-22T10:39:34.073Z,1.73
2024-04-22T10:42:01.323Z,1.73
2024-04-22T10:44:28.352Z,1.70
2024-04-22T10:46:56.642Z,2.10
2024-04-22T10:49:30.515Z,2.10
2024-04-22T10:51:57.499Z,2.55
2024-04-22T10:54:24.334Z,1.60
2024-04-22T10:56:51.062Z,2.10
2024-04-22T10:59:19.075Z,2.15
2024-04-22T11:01:47.004Z,1.67
2024-04-22T11:04:14.428Z,1.92
2024-04-22T11:06:41.823Z,1.80
2024-04-22T11:09:11.000Z,2.00
2024-04-22T11:11:38.589Z,2.38
2024-04-22T11:14:06.233Z,2.17
2024-04-22T11:16:33.176Z,2.00
2024-04-22T11:19:06.876Z,2.47
2024-04-22T11:21:35.748Z,2.03
2024-04-22T11:24:03.728Z,2.45
2024-04-22T11:26:30.744Z,2.10
2024-04-22T11:29:00.169Z,1.85
2024-04-22T11:31:27.337Z,2.05
2024-04-22T11:33:57.269Z,1.70
2024-04-22T11:36:26.699Z,1.70
2024-04-22T11:38:55.989Z,1.55
2024-04-22T11:41:23.341Z,1.50
2024-04-22T11:43:50.326Z,1.48
2024-04-22T11:46:17.224Z,1.75
2024-04-22T11:48:44.165Z,1.50
2024-04-22T11:51:11.033Z,1.80
2024-04-22T11:53:37.919Z,1.63
2024-04-22T11:56:08.248Z,1.73
2024-04-22T11:58:35.884Z,1.90
2024-04-22T12:01:02.916Z,1.88
2024-04-22T12:03:29.730Z,2.05
2024-04-22T12:05:56.628Z,1.95
2024-04-22T12:08:23.446Z,1.60
2024-04-22T12:10:51.520Z,1.92
2024-04-22T12:13:18.592Z,1.58
2024-04-22T12:15:45.431Z,1.63
2024-04-22T12:18:12.222Z,1.80
2024-04-22T12:20:39.072Z,1.60
2024-04-22T12:23:05.865Z,1.88
2024-04-22T12:25:32.657Z,1.80
2024-04-22T12:28:09.462Z,2.13
2024-04-22T12:30:41.001Z,1.70
2024-04-22T12:33:07.964Z,1.65
2024-04-22T12:35:39.063Z,1.75
2024-04-22T12:38:07.120Z,1.58
2024-04-22T12:40:35.156Z,1.40
2024-04-22T12:43:03.402Z,1.60
2024-04-22T12:45:30.551Z,1.50
2024-04-22T12:48:16.241Z,1.23
2024-04-22T12:50:53.837Z,1.50
2024-04-22T12:53:20.680Z,1.55
2024-04-22T12:55:47.488Z,1.17
2024-04-22T12:58:15.664Z,1.10
2024-04-22T13:00:42.766Z,1.20
2024-04-22T13:03:09.809Z,1.40
2024-04-22T13:05:36.592Z,1.00
2024-04-22T13:08:03.530Z,1.00
2024-04-22T13:10:30.546Z,1.13
2024-04-22T13:12:57.444Z,1.25
2024-04-22T13:15:24.283Z,1.40
2024-04-22T13:17:51.695Z,1.25
2024-04-22T13:20:18.629Z,1.35
2024-04-22T13:22:45.512Z,0.93
2024-04-22T13:25:12.418Z,1.08
2024-04-22T13:27:39.144Z,1.02
2024-04-22T13:30:10.324Z,0.80
2024-04-22T13:32:38.458Z,1.17
2024-04-22T13:35:05.879Z,1.00
2024-04-22T13:37:33.235Z,1.50
2024-04-22T13:40:00.038Z,1.00
2024-04-22T13:42:31.302Z,0.90
2024-04-22T13:45:00.584Z,0.90
2024-04-22T13:47:27.430Z,1.10
2024-04-22T13:49:54.314Z,1.10
2024-04-22T13:52:21.190Z,0.73
2024-04-22T13:54:48.085Z,0.85
2024-04-22T13:57:14.962Z,0.82
2024-04-22T13:59:41.737Z,1.10
2024-04-22T14:02:08.682Z,0.80
2024-04-22T14:04:35.608Z,0.80
2024-04-22T14:07:04.709Z,0.77
2024-04-22T14:09:33.164Z,0.88
2024-04-22T14:12:00.046Z,0.88
2024-04-22T14:14:29.929Z,1.30
2024-04-22T14:16:56.971Z,0.85
2024-04-22T14:19:25.926Z,1.00
2024-04-22T14:21:52.732Z,0.93
2024-04-22T14:24:19.493Z,1.08
2024-04-22T14:26:46.243Z,0.88
2024-04-22T14:29:13.014Z,0.88
2024-04-22T14:31:39.946Z,0.82
2024-04-22T14:34:07.506Z,0.73
2024-04-22T14:36:34.282Z,0.90
2024-04-22T14:39:01.052Z,1.00
2024-04-22T14:41:27.864Z,0.90
2024-04-22T14:43:54.991Z,0.77
2024-04-22T14:46:21.946Z,0.63
2024-04-22T14:48:48.928Z,1.00
2024-04-22T14:51:15.742Z,0.90
2024-04-22T14:53:42.577Z,1.23
2024-04-22T14:56:09.484Z,1.00
2024-04-22T14:58:36.405Z,0.90
2024-04-22T15:01:03.313Z,0.90
2024-04-22T15:03:30.297Z,0.90
2024-04-22T15:05:57.222Z,0.80
2024-04-22T15:08:24.192Z,0.75
2024-04-22T15:10:52.663Z,0.88
2024-04-22T15:13:20.395Z,1.08
2024-04-22T15:15:47.294Z,1.27
2024-04-22T15:18:14.265Z,1.10
2024-04-22T15:20:41.191Z,1.10
2024-04-22T15:23:08.001Z,0.82
2024-04-22T15:25:34.828Z,1.05
2024-04-22T15:28:01.627Z,1.30
2024-04-22T15:30:29.838Z,1.42
2024-04-22T15:32:56.954Z,1.30
2024-04-22T15:35:24.691Z,1.73
2024-04-22T15:37:52.225Z,1.20
2024-04-22T15:40:19.410Z,1.10
2024-04-22T15:42:46.305Z,1.20
2024-04-22T15:45:13.122Z,1.10
2024-04-22T15:47:39.981Z,0.80
2024-04-22T15:50:07.185Z,0.98
2024-04-22T15:52:34.453Z,1.10
2024-04-22T15:55:01.276Z,1.25
2024-04-22T15:57:28.117Z,0.90
2024-04-22T16:00:02.235Z,1.17
2024-04-22T16:02:36.771Z,0.85
2024-04-22T16:05:04.563Z,0.63
2024-04-22T16:07:31.769Z,1.00
2024-04-22T16:09:58.806Z,0.65
2024-04-22T16:12:25.703Z,0.90
2024-04-22T16:14:52.810Z,0.80
2024-04-22T16:17:19.752Z,0.90
2024-04-22T16:19:46.649Z,0.80
2024-04-22T16:22:13.498Z,1.05
2024-04-22T16:24:40.347Z,0.77
2024-04-22T16:27:07.101Z,0.80
2024-04-22T16:29:33.970Z,0.77
2024-04-22T16:32:00.958Z,0.80
2024-04-22T16:34:27.967Z,0.80
2024-04-22T16:36:54.771Z,0.88
2024-04-22T16:39:21.536Z,0.70
2024-04-22T16:41:48.321Z,0.82
2024-04-22T16:44:15.099Z,0.90
2024-04-22T16:46:41.858Z,0.80
2024-04-22T16:49:08.788Z,0.70
2024-04-22T16:51:35.629Z,0.63
2024-04-22T16:54:02.397Z,0.90
2024-04-22T16:56:29.145Z,0.60
2024-04-22T16:58:55.923Z,1.35
2024-04-22T17:01:24.658Z,0.77
2024-04-22T17:03:51.582Z,0.80
2024-04-22T17:06:18.527Z,0.65
2024-04-22T17:08:45.365Z,0.98
2024-04-22T17:11:12.238Z,0.82
2024-04-22T17:13:39.129Z,0.80
2024-04-22T17:16:06.388Z,0.82
2024-04-22T17:18:33.475Z,1.25
2024-04-22T17:21:00.450Z,0.75
2024-04-22T17:23:28.543Z,1.00
2024-04-22T17:25:55.732Z,0.90
2024-04-22T17:28:22.841Z,0.90
2024-04-22T17:30:53.234Z,0.70
2024-04-22T17:33:20.568Z,1.17
2024-04-22T17:35:49.157Z,0.98
2024-04-22T17:38:16.239Z,0.90
2024-04-22T17:40:52.891Z,0.90
2024-04-22T17:43:19.845Z,0.88
2024-04-22T17:45:46.768Z,1.10
2024-04-22T17:48:14.040Z,0.95
2024-04-22T17:50:41.343Z,0.88
2024-04-22T17:53:08.140Z,0.98
2024-04-22T17:55:35.554Z,0.90
2024-04-22T17:58:02.438Z,0.95
2024-04-22T18:00:29.204Z,1.00
2024-04-22T18:02:56.020Z,1.00
2024-04-22T18:05:22.865Z,0.90
2024-04-22T18:07:49.724Z,1.02
2024-04-22T18:10:18.462Z,0.85
2024-04-22T18:12:45.370Z,0.80
2024-04-22T18:15:12.098Z,1.05
2024-04-22T18:17:38.974Z,0.80
2024-04-22T18:20:06.591Z,0.82
2024-04-22T18:22:41.242Z,1.00
2024-04-22T18:25:12.632Z,1.05
2024-04-22T18:27:39.382Z,0.98
2024-04-22T18:30:06.572Z,1.00
2024-04-22T18:32:33.387Z,1.00
2024-04-22T18:35:00.327Z,1.02
2024-04-22T18:37:27.745Z,0.85
2024-04-22T18:39:56.763Z,0.70
2024-04-22T18:42:23.924Z,0.80
2024-04-22T18:44:50.727Z,0.90
2024-04-22T18:47:17.560Z,0.88
2024-04-22T18:49:44.388Z,0.70
2024-04-22T18:52:11.221Z,1.00
2024-04-22T18:54:38.145Z,0.70
2024-04-22T18:57:06.821Z,0.93
2024-04-22T18:59:34.273Z,1.10
2024-04-22T19:02:04.652Z,0.80
2024-04-22T19:04:31.862Z,0.90
2024-04-22T19:06:58.726Z,0.90
2024-04-22T19:09:25.560Z,0.80
2024-04-22T19:11:52.372Z,0.93
2024-04-22T19:14:19.261Z,0.90
2024-04-22T19:16:46.109Z,0.88
2024-04-22T19:19:12.994Z,0.90
2024-04-22T19:21:39.837Z,0.93
2024-04-22T19:24:07.166Z,0.90
2024-04-22T19:26:33.958Z,0.80
2024-04-22T19:29:01.188Z,1.00
2024-04-22T19:31:28.064Z,1.05
2024-04-22T19:33:55.302Z,0.95
2024-04-22T19:36:22.529Z,1.15
2024-04-22T19:38:49.285Z,1.10
2024-04-22T19:41:16.030Z,1.48
2024-04-22T19:43:42.801Z,1.67
2024-04-22T19:46:09.713Z,1.25
2024-04-22T19:48:36.553Z,1.40
2024-04-22T19:51:03.358Z,1.10
2024-04-22T19:53:30.141Z,1.42
2024-04-22T19:55:57.245Z,1.08
2024-04-22T19:58:24.451Z,0.98
2024-04-22T20:00:51.235Z,1.00
2024-04-22T20:03:18.195Z,1.10
2024-04-22T20:05:46.219Z,1.10
2024-04-22T20:08:13.633Z,0.70
2024-04-22T20:10:43.869Z,0.70
2024-04-22T20:13:11.281Z,1.00
2024-04-22T20:15:50.789Z,1.10
2024-04-22T20:18:29.177Z,0.82
2024-04-22T20:20:59.475Z,0.98
2024-04-22T20:23:26.263Z,1.17
2024-04-22T20:25:57.393Z,1.15
2024-04-22T20:28:24.734Z,0.95
2024-04-22T20:30:51.567Z,0.82
2024-04-22T20:33:18.540Z,1.23
2024-04-22T20:36:05.904Z,1.10
2024-04-22T20:38:33.326Z,1.10
2024-04-22T20:41:01.887Z,1.17
2024-04-22T20:43:33.326Z,1.10
2024-04-22T20:46:01.359Z,1.30
2024-04-22T20:48:37.190Z,1.30
2024-04-22T20:51:05.862Z,1.02
2024-04-22T20:53:34.238Z,1.10
2024-04-22T20:56:05.160Z,1.38
2024-04-22T20:58:32.983Z,0.80
2024-04-22T21:01:02.530Z,0.80
2024-04-22T21:03:29.710Z,1.25
2024-04-22T21:06:01.419Z,1.05
2024-04-22T21:08:28.724Z,1.52
2024-04-22T21:10:58.482Z,1.50
2024-04-22T21:13:25.529Z,1.20
2024-04-22T21:15:55.463Z,1.55
2024-04-22T21:18:22.695Z,1.27
2024-04-22T21:20:49.891Z,1.13
2024-04-22T21:23:16.962Z,1.20
2024-04-22T21:25:43.916Z,1.33
2024-04-22T21:28:10.765Z,1.17
2024-04-22T21:30:37.535Z,1.42
2024-04-22T21:33:18.516Z,1.25
2024-04-22T21:35:51.304Z,1.20
2024-04-22T21:38:18.059Z,1.50
2024-04-22T21:40:45.881Z,1.20
2024-04-22T21:43:12.763Z,1.75
2024-04-22T21:45:39.630Z,1.38
2024-04-22T21:48:06.862Z,1.40
2024-04-22T21:50:33.682Z,1.20
2024-04-22T21:53:00.424Z,1.48
2024-04-22T21:55:43.439Z,1.55
2024-04-22T21:58:50.728Z,1.85
2024-04-22T22:01:56.146Z,1.40
2024-04-22T22:05:00.806Z,1.45
2024-04-22T22:07:27.780Z,1.55
2024-04-22T22:09:55.576Z,1.40
2024-04-22T22:12:24.294Z,1.20
2024-04-22T22:14:52.122Z,1.65
2024-04-22T22:17:19.189Z,1.50
2024-04-22T22:19:47.829Z,1.38
2024-04-22T22:22:14.749Z,1.48
2024-04-22T22:24:43.516Z,1.40
2024-04-22T22:27:12.146Z,1.60
2024-04-22T22:29:39.723Z,1.48
2024-04-22T22:32:07.367Z,1.40
2024-04-22T22:34:34.304Z,1.40
2024-04-22T22:37:03.119Z,1.38
2024-04-22T22:39:30.325Z,1.40
2024-04-22T22:41:57.711Z,1.30
2024-04-22T22:44:25.368Z,1.73
2024-04-22T22:47:00.509Z,1.75
2024-04-22T22:49:27.505Z,1.60
2024-04-22T22:51:54.281Z,1.77
2024-04-22T22:54:21.550Z,1.52
2024-04-22T22:56:58.784Z,1.95
2024-04-22T22:59:25.871Z,1.77
2024-04-22T23:01:53.377Z,1.95
2024-04-22T23:04:20.400Z,2.10
2024-04-22T23:06:47.175Z,1.50
2024-04-22T23:09:14.302Z,1.70
2024-04-22T23:11:41.193Z,1.63
2024-04-22T23:14:08.073Z,1.77
2024-04-22T23:16:34.967Z,1.90
2024-04-22T23:19:01.885Z,1.92
2024-04-22T23:21:28.643Z,1.90
2024-04-22T23:23:55.385Z,1.60
2024-04-22T23:26:22.154Z,1.90
2024-04-22T23:28:48.985Z,1.67
2024-04-22T23:31:15.799Z,2.25
2024-04-22T23:33:42.705Z,2.28
2024-04-22T23:36:09.627Z,2.67
2024-04-22T23:38:36.423Z,2.55
2024-04-22T23:41:03.221Z,3.10
2024-04-22T23:43:30.022Z,2.97
2024-04-22T23:45:56.800Z,3.03
2024-04-22T23:48:23.577Z,2.90
2024-04-22T23:50:50.402Z,2.47
2024-04-22T23:53:17.313Z,2.20
2024-04-22T23:55:44.116Z,2.13
2024-04-22T23:58:10.904Z,2.40
